sensor_id;sensor_type;location;lat;lon;timestamp;temperature;humidity
38428;DHT22;24211;49.980;19.776;2022-10-22T00:00:59;10.00;99.90
38428;DHT22;24211;49.980;19.776;2022-10-22T00:03:38;10.00;99.90
38428;DHT22;24211;49.980;19.776;2022-10-22T00:06:06;10.00;99.90
38428;DHT22;24211;49.980;19.776;2022-10-22T00:08:33;10.00;99.90
38428;DHT22;24211;49.980;19.776;2022-10-22T00:11:16;10.00;99.90
38428;DHT22;24211;49.980;19.776;2022-10-22T00:13:45;10.00;99.90
38428;DHT22;24211;49.980;19.776;2022-10-22T00:16:17;10.00;99.90
38428;DHT22;24211;49.980;19.776;2022-10-22T00:18:45;10.00;99.90
38428;DHT22;24211;49.980;19.776;2022-10-22T00:21:12;9.90;99.90
38428;DHT22;24211;49.980;19.776;2022-10-22T00:23:40;9.70;99.90
38428;DHT22;24211;49.980;19.776;2022-10-22T00:26:09;9.80;99.90
38428;DHT22;24211;49.980;19.776;2022-10-22T00:28:37;9.80;99.90
38428;DHT22;24211;49.980;19.776;2022-10-22T00:31:05;9.90;99.90
38428;DHT22;24211;49.980;19.776;2022-10-22T00:33:33;9.80;99.90
38428;DHT22;24211;49.980;19.776;2022-10-22T00:36:00;9.90;99.90
38428;DHT22;24211;49.980;19.776;2022-10-22T00:38:28;9.80;99.90
38428;DHT22;24211;49.980;19.776;2022-10-22T00:40:55;9.80;99.90
38428;DHT22;24211;49.980;19.776;2022-10-22T00:43:22;9.80;99.90
38428;DHT22;24211;49.980;19.776;2022-10-22T00:45:49;9.80;99.90
38428;DHT22;24211;49.980;19.776;2022-10-22T00:48:24;9.80;99.90
38428;DHT22;24211;49.980;19.776;2022-10-22T00:51:03;9.80;99.90
38428;DHT22;24211;49.980;19.776;2022-10-22T00:53:43;9.80;99.90
38428;DHT22;24211;49.980;19.776;2022-10-22T00:56:13;9.80;99.90
38428;DHT22;24211;49.980;19.776;2022-10-22T00:58:45;9.80;99.90
38428;DHT22;24211;49.980;19.776;2022-10-22T01:01:17;9.80;99.90
38428;DHT22;24211;49.980;19.776;2022-10-22T01:03:49;9.70;99.90
38428;DHT22;24211;49.980;19.776;2022-10-22T01:06:28;9.80;99.90
38428;DHT22;24211;49.980;19.776;2022-10-22T01:12:01;9.70;99.90
38428;DHT22;24211;49.980;19.776;2022-10-22T01:18:07;9.70;99.90
38428;DHT22;24211;49.980;19.776;2022-10-22T01:21:03;9.70;99.90
38428;DHT22;24211;49.980;19.776;2022-10-22T01:30:00;9.60;99.90
38428;DHT22;24211;49.980;19.776;2022-10-22T01:32:36;9.60;99.90
38428;DHT22;24211;49.980;19.776;2022-10-22T01:35:42;9.60;99.90
38428;DHT22;24211;49.980;19.776;2022-10-22T01:38:17;9.60;99.90
38428;DHT22;24211;49.980;19.776;2022-10-22T01:40:49;9.60;99.90
38428;DHT22;24211;49.980;19.776;2022-10-22T01:43:17;9.50;99.90
38428;DHT22;24211;49.980;19.776;2022-10-22T01:45:49;9.50;99.90
38428;DHT22;24211;49.980;19.776;2022-10-22T01:51:54;9.50;99.90
38428;DHT22;24211;49.980;19.776;2022-10-22T01:54:53;9.50;99.90
38428;DHT22;24211;49.980;19.776;2022-10-22T01:57:40;9.50;99.90
38428;DHT22;24211;49.980;19.776;2022-10-22T02:00:16;9.40;99.90
38428;DHT22;24211;49.980;19.776;2022-10-22T02:03:02;9.40;99.90
38428;DHT22;24211;49.980;19.776;2022-10-22T02:05:48;9.40;99.90
38428;DHT22;24211;49.980;19.776;2022-10-22T02:08:22;9.30;99.90
38428;DHT22;24211;49.980;19.776;2022-10-22T02:10:54;9.20;99.90
38428;DHT22;24211;49.980;19.776;2022-10-22T02:13:50;9.20;99.90
38428;DHT22;24211;49.980;19.776;2022-10-22T02:16:43;9.20;99.90
38428;DHT22;24211;49.980;19.776;2022-10-22T02:19:25;9.20;99.90
38428;DHT22;24211;49.980;19.776;2022-10-22T02:22:09;9.20;99.90
38428;DHT22;24211;49.980;19.776;2022-10-22T02:24:37;9.20;99.90
38428;DHT22;24211;49.980;19.776;2022-10-22T02:30:17;9.10;99.90
38428;DHT22;24211;49.980;19.776;2022-10-22T02:32:57;9.10;99.90
38428;DHT22;24211;49.980;19.776;2022-10-22T02:35:47;9.10;99.90
38428;DHT22;24211;49.980;19.776;2022-10-22T02:38:18;9.00;99.90
38428;DHT22;24211;49.980;19.776;2022-10-22T02:40:45;9.00;99.90
38428;DHT22;24211;49.980;19.776;2022-10-22T02:43:13;9.00;99.90
38428;DHT22;24211;49.980;19.776;2022-10-22T02:45:40;9.00;99.90
38428;DHT22;24211;49.980;19.776;2022-10-22T02:48:07;9.00;99.90
38428;DHT22;24211;49.980;19.776;2022-10-22T02:50:36;9.00;99.90
38428;DHT22;24211;49.980;19.776;2022-10-22T02:53:03;8.90;99.90
38428;DHT22;24211;49.980;19.776;2022-10-22T02:55:30;8.90;99.90
38428;DHT22;24211;49.980;19.776;2022-10-22T02:57:58;8.90;99.90
38428;DHT22;24211;49.980;19.776;2022-10-22T03:00:25;8.90;99.90
38428;DHT22;24211;49.980;19.776;2022-10-22T03:02:52;8.80;99.90
38428;DHT22;24211;49.980;19.776;2022-10-22T03:05:20;8.80;99.90
38428;DHT22;24211;49.980;19.776;2022-10-22T03:07:47;8.80;99.90
38428;DHT22;24211;49.980;19.776;2022-10-22T03:10:14;8.80;99.90
38428;DHT22;24211;49.980;19.776;2022-10-22T03:12:41;8.70;99.90
38428;DHT22;24211;49.980;19.776;2022-10-22T03:15:09;8.80;99.90
38428;DHT22;24211;49.980;19.776;2022-10-22T03:17:36;8.70;99.90
38428;DHT22;24211;49.980;19.776;2022-10-22T03:20:05;8.70;99.90
38428;DHT22;24211;49.980;19.776;2022-10-22T03:22:34;8.70;99.90
38428;DHT22;24211;49.980;19.776;2022-10-22T03:25:08;8.70;99.90
38428;DHT22;24211;49.980;19.776;2022-10-22T03:27:39;8.60;99.90
38428;DHT22;24211;49.980;19.776;2022-10-22T03:30:08;8.60;99.90
38428;DHT22;24211;49.980;19.776;2022-10-22T03:32:36;8.60;99.90
38428;DHT22;24211;49.980;19.776;2022-10-22T03:35:04;8.50;99.90
38428;DHT22;24211;49.980;19.776;2022-10-22T03:37:32;8.50;99.90
38428;DHT22;24211;49.980;19.776;2022-10-22T03:40:04;8.50;99.90
38428;DHT22;24211;49.980;19.776;2022-10-22T03:42:34;8.40;99.90
38428;DHT22;24211;49.980;19.776;2022-10-22T03:45:01;8.50;99.90
38428;DHT22;24211;49.980;19.776;2022-10-22T03:47:28;8.40;99.90
38428;DHT22;24211;49.980;19.776;2022-10-22T03:49:55;8.40;99.90
38428;DHT22;24211;49.980;19.776;2022-10-22T03:52:23;8.30;99.90
38428;DHT22;24211;49.980;19.776;2022-10-22T03:54:50;8.30;99.90
38428;DHT22;24211;49.980;19.776;2022-10-22T03:57:17;8.40;99.90
38428;DHT22;24211;49.980;19.776;2022-10-22T03:59:45;8.30;99.90
38428;DHT22;24211;49.980;19.776;2022-10-22T04:02:13;8.30;99.90
38428;DHT22;24211;49.980;19.776;2022-10-22T04:04:40;8.30;99.90
38428;DHT22;24211;49.980;19.776;2022-10-22T04:07:07;8.30;99.90
38428;DHT22;24211;49.980;19.776;2022-10-22T04:09:35;8.20;99.90
38428;DHT22;24211;49.980;19.776;2022-10-22T04:12:03;8.10;99.90
38428;DHT22;24211;49.980;19.776;2022-10-22T04:14:35;8.20;99.90
38428;DHT22;24211;49.980;19.776;2022-10-22T04:17:03;8.10;99.90
38428;DHT22;24211;49.980;19.776;2022-10-22T04:19:31;8.10;99.90
38428;DHT22;24211;49.980;19.776;2022-10-22T04:21:59;8.10;99.90
38428;DHT22;24211;49.980;19.776;2022-10-22T04:24:28;8.10;99.90
38428;DHT22;24211;49.980;19.776;2022-10-22T04:26:58;8.00;99.90
38428;DHT22;24211;49.980;19.776;2022-10-22T04:29:25;8.10;99.90
38428;DHT22;24211;49.980;19.776;2022-10-22T04:31:53;8.00;99.90
38428;DHT22;24211;49.980;19.776;2022-10-22T04:34:20;8.00;99.90
38428;DHT22;24211;49.980;19.776;2022-10-22T04:36:47;8.00;99.90
38428;DHT22;24211;49.980;19.776;2022-10-22T04:39:14;7.90;99.90
38428;DHT22;24211;49.980;19.776;2022-10-22T04:41:41;8.00;99.90
38428;DHT22;24211;49.980;19.776;2022-10-22T04:44:09;7.90;99.90
38428;DHT22;24211;49.980;19.776;2022-10-22T04:46:42;7.90;99.90
38428;DHT22;24211;49.980;19.776;2022-10-22T04:49:10;7.90;99.90
38428;DHT22;24211;49.980;19.776;2022-10-22T04:51:37;7.90;99.90
38428;DHT22;24211;49.980;19.776;2022-10-22T04:54:04;7.90;99.90
38428;DHT22;24211;49.980;19.776;2022-10-22T04:56:32;7.80;99.90
38428;DHT22;24211;49.980;19.776;2022-10-22T04:59:01;7.90;99.90
38428;DHT22;24211;49.980;19.776;2022-10-22T05:01:38;7.80;99.90
38428;DHT22;24211;49.980;19.776;2022-10-22T05:04:12;7.80;99.90
38428;DHT22;24211;49.980;19.776;2022-10-22T05:06:41;7.90;99.90
38428;DHT22;24211;49.980;19.776;2022-10-22T05:09:15;7.80;99.90
38428;DHT22;24211;49.980;19.776;2022-10-22T05:11:46;7.80;99.90
38428;DHT22;24211;49.980;19.776;2022-10-22T05:14:18;7.80;99.90
38428;DHT22;24211;49.980;19.776;2022-10-22T05:16:48;7.80;99.90
38428;DHT22;24211;49.980;19.776;2022-10-22T05:19:22;7.80;99.90
38428;DHT22;24211;49.980;19.776;2022-10-22T05:21:53;7.80;99.90
38428;DHT22;24211;49.980;19.776;2022-10-22T05:24:22;7.80;99.90
38428;DHT22;24211;49.980;19.776;2022-10-22T05:26:51;7.80;99.90
38428;DHT22;24211;49.980;19.776;2022-10-22T05:29:20;7.80;99.90
38428;DHT22;24211;49.980;19.776;2022-10-22T05:31:48;7.70;99.90
38428;DHT22;24211;49.980;19.776;2022-10-22T05:34:16;7.70;99.90
38428;DHT22;24211;49.980;19.776;2022-10-22T05:36:43;7.70;99.90
38428;DHT22;24211;49.980;19.776;2022-10-22T05:39:11;7.70;99.90
38428;DHT22;24211;49.980;19.776;2022-10-22T05:41:38;7.70;99.90
38428;DHT22;24211;49.980;19.776;2022-10-22T05:44:05;7.70;99.90
38428;DHT22;24211;49.980;19.776;2022-10-22T05:46:34;7.70;99.90
38428;DHT22;24211;49.980;19.776;2022-10-22T05:49:04;7.70;99.90
38428;DHT22;24211;49.980;19.776;2022-10-22T05:51:34;7.60;99.90
38428;DHT22;24211;49.980;19.776;2022-10-22T05:54:04;7.70;99.90
38428;DHT22;24211;49.980;19.776;2022-10-22T05:56:35;7.60;99.90
38428;DHT22;24211;49.980;19.776;2022-10-22T05:59:03;7.70;99.90
38428;DHT22;24211;49.980;19.776;2022-10-22T06:01:32;7.60;99.90
38428;DHT22;24211;49.980;19.776;2022-10-22T06:04:04;7.70;99.90
38428;DHT22;24211;49.980;19.776;2022-10-22T06:06:33;7.70;99.90
38428;DHT22;24211;49.980;19.776;2022-10-22T06:09:17;7.70;99.90
38428;DHT22;24211;49.980;19.776;2022-10-22T06:11:48;7.70;99.90
38428;DHT22;24211;49.980;19.776;2022-10-22T06:14:17;7.60;99.90
38428;DHT22;24211;49.980;19.776;2022-10-22T06:16:45;7.60;99.90
38428;DHT22;24211;49.980;19.776;2022-10-22T06:19:14;7.60;99.90
38428;DHT22;24211;49.980;19.776;2022-10-22T06:21:43;7.70;99.90
38428;DHT22;24211;49.980;19.776;2022-10-22T06:24:11;7.70;99.90
38428;DHT22;24211;49.980;19.776;2022-10-22T06:26:40;7.80;99.90
38428;DHT22;24211;49.980;19.776;2022-10-22T06:29:07;7.80;99.90
38428;DHT22;24211;49.980;19.776;2022-10-22T06:31:35;7.90;99.90
38428;DHT22;24211;49.980;19.776;2022-10-22T06:34:05;7.90;99.90
38428;DHT22;24211;49.980;19.776;2022-10-22T06:36:35;8.00;99.90
38428;DHT22;24211;49.980;19.776;2022-10-22T06:39:04;8.10;99.90
38428;DHT22;24211;49.980;19.776;2022-10-22T06:41:31;8.10;99.90
38428;DHT22;24211;49.980;19.776;2022-10-22T06:43:58;8.20;99.90
38428;DHT22;24211;49.980;19.776;2022-10-22T06:46:26;8.20;99.90
38428;DHT22;24211;49.980;19.776;2022-10-22T06:49:00;8.30;99.90
38428;DHT22;24211;49.980;19.776;2022-10-22T06:51:29;8.40;99.90
38428;DHT22;24211;49.980;19.776;2022-10-22T06:53:57;8.50;99.90
38428;DHT22;24211;49.980;19.776;2022-10-22T06:56:27;8.60;99.90
38428;DHT22;24211;49.980;19.776;2022-10-22T06:58:56;8.60;99.90
38428;DHT22;24211;49.980;19.776;2022-10-22T07:01:30;8.70;99.90
38428;DHT22;24211;49.980;19.776;2022-10-22T07:03:59;8.70;99.90
38428;DHT22;24211;49.980;19.776;2022-10-22T07:06:27;8.80;99.90
38428;DHT22;24211;49.980;19.776;2022-10-22T07:08:56;8.80;99.90
38428;DHT22;24211;49.980;19.776;2022-10-22T07:11:28;8.90;99.90
38428;DHT22;24211;49.980;19.776;2022-10-22T07:13:59;8.90;99.90
38428;DHT22;24211;49.980;19.776;2022-10-22T07:16:27;9.00;99.90
38428;DHT22;24211;49.980;19.776;2022-10-22T07:19:01;9.10;99.90
38428;DHT22;24211;49.980;19.776;2022-10-22T07:21:31;9.30;99.90
38428;DHT22;24211;49.980;19.776;2022-10-22T07:23:58;9.30;99.90
38428;DHT22;24211;49.980;19.776;2022-10-22T07:26:26;9.50;99.90
38428;DHT22;24211;49.980;19.776;2022-10-22T07:28:59;9.70;99.90
38428;DHT22;24211;49.980;19.776;2022-10-22T07:31:27;9.80;99.90
38428;DHT22;24211;49.980;19.776;2022-10-22T07:33:55;10.00;99.90
38428;DHT22;24211;49.980;19.776;2022-10-22T07:36:23;10.20;99.90
38428;DHT22;24211;49.980;19.776;2022-10-22T07:38:58;10.40;99.90
38428;DHT22;24211;49.980;19.776;2022-10-22T07:41:27;10.60;99.90
38428;DHT22;24211;49.980;19.776;2022-10-22T07:43:57;10.70;99.90
38428;DHT22;24211;49.980;19.776;2022-10-22T07:46:25;10.70;99.90
38428;DHT22;24211;49.980;19.776;2022-10-22T07:48:53;10.80;99.90
38428;DHT22;24211;49.980;19.776;2022-10-22T07:51:21;10.90;99.90
38428;DHT22;24211;49.980;19.776;2022-10-22T07:53:49;11.00;99.90
38428;DHT22;24211;49.980;19.776;2022-10-22T07:56:16;11.00;99.90
38428;DHT22;24211;49.980;19.776;2022-10-22T07:58:43;11.10;99.90
38428;DHT22;24211;49.980;19.776;2022-10-22T08:01:11;11.20;99.90
38428;DHT22;24211;49.980;19.776;2022-10-22T08:03:38;11.20;99.90
38428;DHT22;24211;49.980;19.776;2022-10-22T08:06:06;11.30;99.90
38428;DHT22;24211;49.980;19.776;2022-10-22T08:08:33;11.40;99.90
38428;DHT22;24211;49.980;19.776;2022-10-22T08:11:01;11.40;99.90
38428;DHT22;24211;49.980;19.776;2022-10-22T08:13:28;11.50;99.90
38428;DHT22;24211;49.980;19.776;2022-10-22T08:15:59;11.50;99.90
38428;DHT22;24211;49.980;19.776;2022-10-22T08:18:28;11.60;99.90
38428;DHT22;24211;49.980;19.776;2022-10-22T08:20:56;11.60;99.90
38428;DHT22;24211;49.980;19.776;2022-10-22T08:23:24;11.70;99.90
38428;DHT22;24211;49.980;19.776;2022-10-22T08:25:55;11.70;99.90
38428;DHT22;24211;49.980;19.776;2022-10-22T08:28:23;11.70;99.90
38428;DHT22;24211;49.980;19.776;2022-10-22T08:30:50;11.80;99.90
38428;DHT22;24211;49.980;19.776;2022-10-22T08:33:17;11.90;99.90
38428;DHT22;24211;49.980;19.776;2022-10-22T08:35:49;11.90;99.90
38428;DHT22;24211;49.980;19.776;2022-10-22T08:38:18;12.00;99.90
38428;DHT22;24211;49.980;19.776;2022-10-22T08:40:50;12.10;99.90
38428;DHT22;24211;49.980;19.776;2022-10-22T08:43:28;12.20;99.90
38428;DHT22;24211;49.980;19.776;2022-10-22T08:46:29;12.30;99.90
38428;DHT22;24211;49.980;19.776;2022-10-22T08:49:13;12.40;99.90
38428;DHT22;24211;49.980;19.776;2022-10-22T08:51:46;12.40;99.90
38428;DHT22;24211;49.980;19.776;2022-10-22T08:54:27;12.40;99.90
38428;DHT22;24211;49.980;19.776;2022-10-22T09:00:34;12.50;99.90
38428;DHT22;24211;49.980;19.776;2022-10-22T09:03:41;12.50;99.90
38428;DHT22;24211;49.980;19.776;2022-10-22T09:06:27;12.60;99.90
38428;DHT22;24211;49.980;19.776;2022-10-22T09:08:59;12.60;99.90
38428;DHT22;24211;49.980;19.776;2022-10-22T09:11:35;12.60;99.90
38428;DHT22;24211;49.980;19.776;2022-10-22T09:14:05;12.60;99.90
38428;DHT22;24211;49.980;19.776;2022-10-22T09:19:15;12.70;99.90
38428;DHT22;24211;49.980;19.776;2022-10-22T09:27:50;13.00;99.90
38428;DHT22;24211;49.980;19.776;2022-10-22T09:30:27;13.00;99.90
38428;DHT22;24211;49.980;19.776;2022-10-22T09:38:24;13.30;99.90
38428;DHT22;24211;49.980;19.776;2022-10-22T09:41:06;13.30;99.90
38428;DHT22;24211;49.980;19.776;2022-10-22T09:43:35;13.40;99.90
38428;DHT22;24211;49.980;19.776;2022-10-22T09:46:06;13.50;99.90
38428;DHT22;24211;49.980;19.776;2022-10-22T09:48:42;13.50;99.90
38428;DHT22;24211;49.980;19.776;2022-10-22T09:51:19;13.50;99.90
38428;DHT22;24211;49.980;19.776;2022-10-22T09:53:56;13.60;99.90
38428;DHT22;24211;49.980;19.776;2022-10-22T09:56:38;13.60;99.90
38428;DHT22;24211;49.980;19.776;2022-10-22T09:59:16;13.70;99.90
38428;DHT22;24211;49.980;19.776;2022-10-22T10:01:45;13.70;99.90
38428;DHT22;24211;49.980;19.776;2022-10-22T10:04:14;13.70;99.90
38428;DHT22;24211;49.980;19.776;2022-10-22T10:06:43;13.70;99.90
38428;DHT22;24211;49.980;19.776;2022-10-22T10:09:30;13.70;99.90
38428;DHT22;24211;49.980;19.776;2022-10-22T10:15:27;13.70;99.90
38428;DHT22;24211;49.980;19.776;2022-10-22T10:18:21;13.60;99.90
38428;DHT22;24211;49.980;19.776;2022-10-22T10:21:06;13.60;99.90
38428;DHT22;24211;49.980;19.776;2022-10-22T10:23:47;13.70;99.90
38428;DHT22;24211;49.980;19.776;2022-10-22T10:29:33;13.60;99.90
38428;DHT22;24211;49.980;19.776;2022-10-22T10:32:24;13.60;99.90
38428;DHT22;24211;49.980;19.776;2022-10-22T10:38:37;13.70;99.90
38428;DHT22;24211;49.980;19.776;2022-10-22T10:41:09;13.70;99.90
38428;DHT22;24211;49.980;19.776;2022-10-22T10:43:58;13.70;99.90
38428;DHT22;24211;49.980;19.776;2022-10-22T10:46:48;13.70;99.90
38428;DHT22;24211;49.980;19.776;2022-10-22T10:49:37;13.70;99.90
38428;DHT22;24211;49.980;19.776;2022-10-22T10:57:53;13.80;99.90
38428;DHT22;24211;49.980;19.776;2022-10-22T11:00:27;13.80;99.90
38428;DHT22;24211;49.980;19.776;2022-10-22T11:03:33;13.80;99.90
38428;DHT22;24211;49.980;19.776;2022-10-22T11:06:13;13.80;99.90
38428;DHT22;24211;49.980;19.776;2022-10-22T11:09:01;13.80;99.90
38428;DHT22;24211;49.980;19.776;2022-10-22T11:11:44;13.80;99.90
38428;DHT22;24211;49.980;19.776;2022-10-22T11:14:20;13.80;99.90
38428;DHT22;24211;49.980;19.776;2022-10-22T11:22:56;13.70;99.90
38428;DHT22;24211;49.980;19.776;2022-10-22T11:25:49;13.70;99.90
38428;DHT22;24211;49.980;19.776;2022-10-22T11:28:23;13.70;99.90
38428;DHT22;24211;49.980;19.776;2022-10-22T11:31:03;13.60;99.90
38428;DHT22;24211;49.980;19.776;2022-10-22T11:36:17;13.60;99.90
38428;DHT22;24211;49.980;19.776;2022-10-22T11:38:48;13.60;99.90
38428;DHT22;24211;49.980;19.776;2022-10-22T11:41:18;13.50;99.90
38428;DHT22;24211;49.980;19.776;2022-10-22T11:44:18;13.50;99.90
38428;DHT22;24211;49.980;19.776;2022-10-22T11:46:57;13.50;99.90
38428;DHT22;24211;49.980;19.776;2022-10-22T11:49:54;13.50;99.90
38428;DHT22;24211;49.980;19.776;2022-10-22T11:52:36;13.50;99.90
38428;DHT22;24211;49.980;19.776;2022-10-22T11:55:28;13.40;99.90
38428;DHT22;24211;49.980;19.776;2022-10-22T11:58:32;13.40;99.90
38428;DHT22;24211;49.980;19.776;2022-10-22T12:03:40;13.40;99.90
38428;DHT22;24211;49.980;19.776;2022-10-22T12:14:31;13.30;99.90
38428;DHT22;24211;49.980;19.776;2022-10-22T12:17:11;13.30;99.90
38428;DHT22;24211;49.980;19.776;2022-10-22T12:19:54;13.30;99.90
38428;DHT22;24211;49.980;19.776;2022-10-22T12:22:31;13.30;99.90
38428;DHT22;24211;49.980;19.776;2022-10-22T12:25:20;13.30;99.90
38428;DHT22;24211;49.980;19.776;2022-10-22T12:27:55;13.30;99.90
38428;DHT22;24211;49.980;19.776;2022-10-22T12:30:28;13.30;99.90
38428;DHT22;24211;49.980;19.776;2022-10-22T12:32:58;13.30;99.90
38428;DHT22;24211;49.980;19.776;2022-10-22T12:35:33;13.30;99.90
38428;DHT22;24211;49.980;19.776;2022-10-22T12:38:15;13.30;99.90
38428;DHT22;24211;49.980;19.776;2022-10-22T12:40:47;13.30;99.90
38428;DHT22;24211;49.980;19.776;2022-10-22T12:43:17;13.30;99.90
38428;DHT22;24211;49.980;19.776;2022-10-22T12:45:55;13.30;99.90
38428;DHT22;24211;49.980;19.776;2022-10-22T12:48:39;13.30;99.90
38428;DHT22;24211;49.980;19.776;2022-10-22T12:51:11;13.30;99.90
38428;DHT22;24211;49.980;19.776;2022-10-22T12:53:49;13.30;99.90
38428;DHT22;24211;49.980;19.776;2022-10-22T12:56:25;13.30;99.90
38428;DHT22;24211;49.980;19.776;2022-10-22T12:59:01;13.40;99.90
38428;DHT22;24211;49.980;19.776;2022-10-22T13:01:41;13.40;99.90
38428;DHT22;24211;49.980;19.776;2022-10-22T13:04:19;13.30;99.90
38428;DHT22;24211;49.980;19.776;2022-10-22T13:06:51;13.30;99.90
38428;DHT22;24211;49.980;19.776;2022-10-22T13:09:57;13.40;99.90
38428;DHT22;24211;49.980;19.776;2022-10-22T13:12:33;13.40;99.90
38428;DHT22;24211;49.980;19.776;2022-10-22T13:15:31;13.40;99.90
38428;DHT22;24211;49.980;19.776;2022-10-22T13:20:33;13.40;99.90
38428;DHT22;24211;49.980;19.776;2022-10-22T13:23:04;13.40;99.90
38428;DHT22;24211;49.980;19.776;2022-10-22T13:25:36;13.40;99.90
38428;DHT22;24211;49.980;19.776;2022-10-22T13:28:18;13.40;99.90
38428;DHT22;24211;49.980;19.776;2022-10-22T13:33:38;13.40;99.90
38428;DHT22;24211;49.980;19.776;2022-10-22T13:36:13;13.40;99.90
38428;DHT22;24211;49.980;19.776;2022-10-22T13:38:43;13.30;99.90
38428;DHT22;24211;49.980;19.776;2022-10-22T13:41:23;13.30;99.90
38428;DHT22;24211;49.980;19.776;2022-10-22T13:43:52;13.40;99.90
38428;DHT22;24211;49.980;19.776;2022-10-22T13:46:21;13.40;99.90
38428;DHT22;24211;49.980;19.776;2022-10-22T13:48:52;13.40;99.90
38428;DHT22;24211;49.980;19.776;2022-10-22T13:51:23;13.40;99.90
38428;DHT22;24211;49.980;19.776;2022-10-22T13:53:55;13.30;99.90
38428;DHT22;24211;49.980;19.776;2022-10-22T13:56:23;13.30;99.90
38428;DHT22;24211;49.980;19.776;2022-10-22T13:58:50;13.30;99.90
38428;DHT22;24211;49.980;19.776;2022-10-22T14:01:24;13.40;99.90
38428;DHT22;24211;49.980;19.776;2022-10-22T14:03:56;13.40;99.90
38428;DHT22;24211;49.980;19.776;2022-10-22T14:06:28;13.30;99.90
38428;DHT22;24211;49.980;19.776;2022-10-22T14:09:00;13.30;99.90
38428;DHT22;24211;49.980;19.776;2022-10-22T14:11:31;13.30;99.90
38428;DHT22;24211;49.980;19.776;2022-10-22T14:13:58;13.30;99.90
38428;DHT22;24211;49.980;19.776;2022-10-22T14:16:26;13.30;99.90
38428;DHT22;24211;49.980;19.776;2022-10-22T14:18:57;13.30;99.90
38428;DHT22;24211;49.980;19.776;2022-10-22T14:21:34;13.30;99.90
38428;DHT22;24211;49.980;19.776;2022-10-22T14:24:04;13.30;99.90
38428;DHT22;24211;49.980;19.776;2022-10-22T14:26:36;13.30;99.90
38428;DHT22;24211;49.980;19.776;2022-10-22T14:29:03;13.30;99.90
38428;DHT22;24211;49.980;19.776;2022-10-22T14:31:39;13.20;99.90
38428;DHT22;24211;49.980;19.776;2022-10-22T14:34:11;13.20;99.90
38428;DHT22;24211;49.980;19.776;2022-10-22T14:36:40;13.30;99.90
38428;DHT22;24211;49.980;19.776;2022-10-22T14:39:11;13.20;99.90
38428;DHT22;24211;49.980;19.776;2022-10-22T14:41:39;13.20;99.90
38428;DHT22;24211;49.980;19.776;2022-10-22T14:44:10;13.20;99.90
38428;DHT22;24211;49.980;19.776;2022-10-22T14:46:40;13.20;99.90
38428;DHT22;24211;49.980;19.776;2022-10-22T14:49:10;13.20;99.90
38428;DHT22;24211;49.980;19.776;2022-10-22T14:51:37;13.20;99.90
38428;DHT22;24211;49.980;19.776;2022-10-22T14:54:04;13.10;99.90
38428;DHT22;24211;49.980;19.776;2022-10-22T14:56:31;13.20;99.90
38428;DHT22;24211;49.980;19.776;2022-10-22T14:58:59;13.10;99.90
38428;DHT22;24211;49.980;19.776;2022-10-22T15:01:27;13.10;99.90
38428;DHT22;24211;49.980;19.776;2022-10-22T15:03:54;13.20;99.90
38428;DHT22;24211;49.980;19.776;2022-10-22T15:06:21;13.10;99.90
38428;DHT22;24211;49.980;19.776;2022-10-22T15:08:48;13.10;99.90
38428;DHT22;24211;49.980;19.776;2022-10-22T15:11:16;13.10;99.90
38428;DHT22;24211;49.980;19.776;2022-10-22T15:13:44;13.10;99.90
38428;DHT22;24211;49.980;19.776;2022-10-22T15:16:13;13.10;99.90
38428;DHT22;24211;49.980;19.776;2022-10-22T15:18:41;13.10;99.90
38428;DHT22;24211;49.980;19.776;2022-10-22T15:21:14;13.10;99.90
38428;DHT22;24211;49.980;19.776;2022-10-22T15:23:44;13.10;99.90
38428;DHT22;24211;49.980;19.776;2022-10-22T15:26:12;13.10;99.90
38428;DHT22;24211;49.980;19.776;2022-10-22T15:28:40;13.10;99.90
38428;DHT22;24211;49.980;19.776;2022-10-22T15:31:12;13.10;99.90
38428;DHT22;24211;49.980;19.776;2022-10-22T15:33:42;13.00;99.90
38428;DHT22;24211;49.980;19.776;2022-10-22T15:36:14;13.00;99.90
38428;DHT22;24211;49.980;19.776;2022-10-22T15:38:42;13.00;99.90
38428;DHT22;24211;49.980;19.776;2022-10-22T15:41:11;13.00;99.90
38428;DHT22;24211;49.980;19.776;2022-10-22T15:43:39;13.00;99.90
38428;DHT22;24211;49.980;19.776;2022-10-22T15:46:12;13.00;99.90
38428;DHT22;24211;49.980;19.776;2022-10-22T15:48:42;13.00;99.90
38428;DHT22;24211;49.980;19.776;2022-10-22T15:51:14;13.00;99.90
38428;DHT22;24211;49.980;19.776;2022-10-22T15:53:50;13.00;99.90
38428;DHT22;24211;49.980;19.776;2022-10-22T15:56:18;13.00;99.90
38428;DHT22;24211;49.980;19.776;2022-10-22T15:58:46;12.90;99.90
38428;DHT22;24211;49.980;19.776;2022-10-22T16:01:13;12.90;99.90
38428;DHT22;24211;49.980;19.776;2022-10-22T16:03:41;12.90;99.90
38428;DHT22;24211;49.980;19.776;2022-10-22T16:06:08;13.00;99.90
38428;DHT22;24211;49.980;19.776;2022-10-22T16:08:36;12.90;99.90
38428;DHT22;24211;49.980;19.776;2022-10-22T16:11:04;12.90;99.90
38428;DHT22;24211;49.980;19.776;2022-10-22T16:13:31;12.90;99.90
38428;DHT22;24211;49.980;19.776;2022-10-22T16:16:03;12.90;99.90
38428;DHT22;24211;49.980;19.776;2022-10-22T16:18:32;12.90;99.90
38428;DHT22;24211;49.980;19.776;2022-10-22T16:21:00;12.90;99.90
38428;DHT22;24211;49.980;19.776;2022-10-22T16:23:29;12.90;99.90
38428;DHT22;24211;49.980;19.776;2022-10-22T16:26:00;12.90;99.90
38428;DHT22;24211;49.980;19.776;2022-10-22T16:28:28;12.90;99.90
38428;DHT22;24211;49.980;19.776;2022-10-22T16:30:55;12.90;99.90
38428;DHT22;24211;49.980;19.776;2022-10-22T16:33:23;12.90;99.90
38428;DHT22;24211;49.980;19.776;2022-10-22T16:35:50;12.90;99.90
38428;DHT22;24211;49.980;19.776;2022-10-22T16:38:17;12.90;99.90
38428;DHT22;24211;49.980;19.776;2022-10-22T16:40:44;12.90;99.90
38428;DHT22;24211;49.980;19.776;2022-10-22T16:43:12;12.80;99.90
38428;DHT22;24211;49.980;19.776;2022-10-22T16:45:46;12.80;99.90
38428;DHT22;24211;49.980;19.776;2022-10-22T16:48:16;12.90;99.90
38428;DHT22;24211;49.980;19.776;2022-10-22T16:50:44;12.90;99.90
38428;DHT22;24211;49.980;19.776;2022-10-22T16:53:11;12.80;99.90
38428;DHT22;24211;49.980;19.776;2022-10-22T16:55:39;12.80;99.90
38428;DHT22;24211;49.980;19.776;2022-10-22T16:58:07;12.80;99.90
38428;DHT22;24211;49.980;19.776;2022-10-22T17:00:34;12.80;99.90
38428;DHT22;24211;49.980;19.776;2022-10-22T17:03:03;12.80;99.90
38428;DHT22;24211;49.980;19.776;2022-10-22T17:05:30;12.80;99.90
38428;DHT22;24211;49.980;19.776;2022-10-22T17:07:57;12.80;99.90
38428;DHT22;24211;49.980;19.776;2022-10-22T17:10:25;12.80;99.90
38428;DHT22;24211;49.980;19.776;2022-10-22T17:12:52;12.80;99.90